Nearby METAR Reports

 

KHQM - Hoquiam,WA, USA
Updated: Fri, 20-Jul-2018 6:53am PDT
Clear
Clear
 Wind from W
Wind: W 9 mph , 15 km/h
Temperature: 57°F , 14°C
Dew Point: 54°F , 12°C
Humidity: 88%
Barometer: 30.20 inHg , 1022.7 hPa
Clouds: Clear
Visibility: 7 miles , 11 km
2018/07/20 13:53 KHQM 201353Z AUTO 26008KT 7SM CLR 14/12 A3020 RMK AO2 SLP229 T01390117